Time;durP1;ratioP1;P1;durP2;ratioP2;P2;SDS_P1;SDS_P2;PMS_P1;PMS_P2;Temp;Humidity;BMP_temperature;BMP_pressure;BME280_temperature;BME280_humidity;BME280_pressure;Samples;Min_cycle;Max_cycle;Signal;HPM_P1;HPM_P2
2023/11/27 00:00:13;;;;;;;8.80;6.03;;;1.00;99.90;;;;;;4870636;29;20033;-84
2023/11/27 00:02:38;;;;;;;10.40;5.90;;;1.00;99.90;;;;;;4871826;29;20044;-83
2023/11/27 00:05:05;;;;;;;7.03;5.43;;;0.90;99.90;;;;;;4871307;29;20047;-84
2023/11/27 00:07:30;;;;;;;6.37;4.90;;;0.90;99.90;;;;;;4871446;29;20060;-83
2023/11/27 00:09:56;;;;;;;7.80;5.10;;;0.90;99.90;;;;;;4870185;29;20985;-83
2023/11/27 00:12:21;;;;;;;9.27;5.43;;;0.90;99.90;;;;;;4872386;29;20481;-84
2023/11/27 00:14:47;;;;;;;5.40;4.77;;;0.90;99.90;;;;;;4873922;29;20033;-84
2023/11/27 00:17:12;;;;;;;7.60;5.43;;;0.90;99.90;;;;;;4871443;29;20067;-85
2023/11/27 00:19:38;;;;;;;6.57;5.13;;;0.90;99.90;;;;;;4873914;29;20060;-84
2023/11/27 00:22:04;;;;;;;6.93;5.60;;;0.80;99.90;;;;;;4871862;29;20052;-84
2023/11/27 00:24:29;;;;;;;7.80;5.27;;;0.90;99.90;;;;;;4872504;29;20113;-84
2023/11/27 00:26:55;;;;;;;7.10;5.37;;;0.80;99.90;;;;;;4870165;29;20029;-84
2023/11/27 00:29:20;;;;;;;9.00;6.00;;;0.80;99.90;;;;;;4870286;29;20164;-84
2023/11/27 00:31:46;;;;;;;8.40;5.33;;;0.80;99.90;;;;;;4870544;29;20029;-84
2023/11/27 00:34:11;;;;;;;10.30;5.20;;;0.80;99.90;;;;;;4870538;29;20445;-84
2023/11/27 00:36:38;;;;;;;7.83;5.07;;;0.70;99.90;;;;;;4870115;29;20077;-83
2023/11/27 00:39:07;;;;;;;7.17;4.87;;;0.70;99.90;;;;;;4870386;29;20041;-84
2023/11/27 00:41:32;;;;;;;6.70;5.20;;;0.70;99.90;;;;;;4870105;29;20041;-84
2023/11/27 00:43:58;;;;;;;8.23;5.40;;;0.70;99.90;;;;;;4870467;29;20036;-84
2023/11/27 00:46:23;;;;;;;8.37;4.93;;;0.70;99.90;;;;;;4869193;29;20085;-84
2023/11/27 00:48:49;;;;;;;8.33;5.47;;;0.70;99.90;;;;;;4869369;29;20049;-84
2023/11/27 00:51:14;;;;;;;7.00;4.90;;;0.70;99.90;;;;;;4869132;29;20098;-83
2023/11/27 00:53:40;;;;;;;9.10;4.83;;;0.70;99.90;;;;;;4869954;29;20100;-84
2023/11/27 00:56:06;;;;;;;8.20;4.90;;;0.70;99.90;;;;;;4872590;29;20029;-84
2023/11/27 00:58:32;;;;;;;7.67;4.73;;;0.70;99.90;;;;;;4871026;29;20153;-84
2023/11/27 01:00:57;;;;;;;5.13;4.20;;;0.80;99.90;;;;;;4874834;29;20104;-84
2023/11/27 01:03:23;;;;;;;8.10;4.50;;;0.80;99.90;;;;;;4872081;29;20269;-84
2023/11/27 01:05:48;;;;;;;6.17;4.53;;;0.80;99.90;;;;;;4873061;29;20025;-84
2023/11/27 01:08:14;;;;;;;6.23;4.23;;;0.80;99.90;;;;;;4873811;29;20037;-83
2023/11/27 01:10:41;;;;;;;6.87;4.13;;;0.80;99.90;;;;;;4873486;29;20489;-83
2023/11/27 01:13:09;;;;;;;7.77;4.50;;;0.80;99.90;;;;;;4875075;29;20121;-83
2023/11/27 01:15:35;;;;;;;7.53;4.13;;;0.80;99.90;;;;;;4874746;29;20048;-83
2023/11/27 01:18:00;;;;;;;5.80;4.00;;;0.90;99.90;;;;;;4875008;29;20037;-83
2023/11/27 01:20:26;;;;;;;7.30;4.30;;;0.90;99.90;;;;;;4874070;29;20034;-83
2023/11/27 01:22:51;;;;;;;8.00;4.30;;;0.90;99.90;;;;;;4875014;29;20029;-83
2023/11/27 01:25:17;;;;;;;7.47;4.23;;;0.90;99.90;;;;;;4873102;29;20036;-84
2023/11/27 01:27:44;;;;;;;8.30;4.30;;;0.90;99.90;;;;;;4873585;29;20033;-83
2023/11/27 01:30:10;;;;;;;8.37;3.80;;;0.90;99.90;;;;;;4872519;29;20037;-83
2023/11/27 01:32:35;;;;;;;8.07;4.27;;;0.90;99.90;;;;;;4873058;29;20059;-83
2023/11/27 01:35:01;;;;;;;5.43;3.80;;;0.90;99.90;;;;;;4871885;29;20041;-83
2023/11/27 01:37:26;;;;;;;5.17;4.07;;;0.90;99.90;;;;;;4873403;29;20123;-84
2023/11/27 01:39:52;;;;;;;5.77;3.60;;;0.90;99.90;;;;;;4874231;29;20080;-84
2023/11/27 01:42:18;;;;;;;5.17;3.67;;;0.90;99.90;;;;;;4874581;29;20073;-83
2023/11/27 01:44:43;;;;;;;5.73;3.87;;;0.80;99.90;;;;;;4874663;29;20112;-84
2023/11/27 01:47:09;;;;;;;7.73;3.87;;;0.80;99.90;;;;;;4873345;29;20021;-83
2023/11/27 01:49:37;;;;;;;6.80;4.33;;;0.80;99.90;;;;;;4872914;29;20037;-84
2023/11/27 01:52:06;;;;;;;7.60;3.83;;;0.70;99.90;;;;;;4873533;29;20040;-83
2023/11/27 01:54:33;;;;;;;7.77;3.97;;;0.70;99.90;;;;;;4873140;29;20049;-83
2023/11/27 01:57:00;;;;;;;6.43;4.37;;;0.70;99.90;;;;;;4871555;29;20129;-83
2023/11/27 01:59:26;;;;;;;5.70;3.97;;;0.70;99.90;;;;;;4872130;29;20048;-83
2023/11/27 02:01:52;;;;;;;6.67;3.80;;;0.60;99.90;;;;;;4872509;29;20037;-83
2023/11/27 02:04:17;;;;;;;7.50;4.07;;;0.60;99.90;;;;;;4871365;29;20066;-83
2023/11/27 02:06:43;;;;;;;5.43;3.20;;;0.60;99.90;;;;;;4886759;29;20068;-83
2023/11/27 02:09:09;;;;;;;7.20;3.70;;;0.60;99.90;;;;;;4898832;29;20017;-83
2023/11/27 02:11:47;;;;;;;5.60;3.80;;;0.60;99.90;;;;;;4890539;29;20041;-84
2023/11/27 02:14:15;;;;;;;5.43;3.53;;;0.60;99.90;;;;;;4873830;29;20045;-83
2023/11/27 02:16:48;;;;;;;4.97;3.77;;;0.60;99.90;;;;;;4873349;29;20039;-83
2023/11/27 02:19:14;;;;;;;5.57;3.33;;;0.60;99.90;;;;;;4874428;29;20037;-83
2023/11/27 02:21:40;;;;;;;5.17;3.50;;;0.50;99.90;;;;;;4873301;29;20039;-84
2023/11/27 02:24:06;;;;;;;5.37;3.10;;;0.60;99.90;;;;;;4873847;29;20557;-83
2023/11/27 02:26:32;;;;;;;6.03;3.50;;;0.60;99.90;;;;;;4872980;29;20033;-83
2023/11/27 02:28:59;;;;;;;4.40;3.47;;;0.60;99.90;;;;;;4874459;29;20037;-83
2023/11/27 02:31:25;;;;;;;8.07;4.00;;;0.60;99.90;;;;;;4873778;29;20044;-83
2023/11/27 02:33:51;;;;;;;6.73;3.43;;;0.60;99.90;;;;;;4873441;29;20056;-83
2023/11/27 02:36:16;;;;;;;6.20;3.53;;;0.60;99.90;;;;;;4872686;29;20688;-83
2023/11/27 02:38:42;;;;;;;6.77;3.13;;;0.60;99.90;;;;;;4873403;29;20033;-83
2023/11/27 02:41:08;;;;;;;4.43;3.13;;;0.60;99.90;;;;;;4874214;29;20028;-83
2023/11/27 02:43:34;;;;;;;7.60;3.90;;;0.60;99.90;;;;;;4874123;29;20032;-83
2023/11/27 02:46:00;;;;;;;6.37;3.77;;;0.60;99.90;;;;;;4870739;29;20029;-83
2023/11/27 02:48:26;;;;;;;5.67;3.87;;;0.60;99.90;;;;;;4872103;29;20039;-83
2023/11/27 02:50:51;;;;;;;7.17;3.63;;;0.60;99.90;;;;;;4874373;29;20037;-83
2023/11/27 02:53:17;;;;;;;5.90;3.63;;;0.60;99.90;;;;;;4873392;29;20470;-83
2023/11/27 02:55:42;;;;;;;8.10;3.77;;;0.70;99.90;;;;;;4873494;29;20041;-83
2023/11/27 02:58:08;;;;;;;6.67;3.97;;;0.70;99.90;;;;;;4874825;29;20105;-83
2023/11/27 03:00:35;;;;;;;5.50;3.40;;;0.70;99.90;;;;;;4874743;29;20125;-83
2023/11/27 03:03:00;;;;;;;10.83;4.17;;;0.70;99.90;;;;;;4873798;29;20124;-83
2023/11/27 03:05:26;;;;;;;5.90;3.53;;;0.70;99.90;;;;;;4872173;29;20037;-83
2023/11/27 03:07:52;;;;;;;6.97;3.53;;;0.70;99.90;;;;;;4873706;29;20048;-83
2023/11/27 03:10:17;;;;;;;6.10;3.47;;;0.70;99.90;;;;;;4872377;29;20029;-84
2023/11/27 03:12:43;;;;;;;6.03;3.40;;;0.80;99.90;;;;;;4871766;29;20047;-84
2023/11/27 03:15:09;;;;;;;6.07;3.47;;;0.80;99.90;;;;;;4871286;29;20066;-83
2023/11/27 03:17:37;;;;;;;4.50;2.67;;;0.80;99.90;;;;;;4876732;29;20065;-83
2023/11/27 03:20:04;;;;;;;5.47;3.47;;;0.80;99.90;;;;;;4877462;29;20028;-83
2023/11/27 03:22:30;;;;;;;5.53;2.97;;;0.80;99.90;;;;;;4875855;29;20033;-82
2023/11/27 03:24:55;;;;;;;12.80;3.20;;;0.80;99.90;;;;;;4872030;29;20029;-83
2023/11/27 03:27:21;;;;;;;4.97;3.30;;;0.80;99.90;;;;;;4873611;29;20032;-83
2023/11/27 03:29:46;;;;;;;3.73;2.67;;;0.90;99.90;;;;;;4873946;29;20036;-83
2023/11/27 03:32:12;;;;;;;8.07;2.80;;;0.90;99.90;;;;;;4874624;29;20048;-84
2023/11/27 03:34:38;;;;;;;5.40;2.50;;;0.90;99.90;;;;;;4876639;29;20084;-84
2023/11/27 03:37:03;;;;;;;4.07;2.27;;;0.90;99.90;;;;;;4874150;29;20763;-83
2023/11/27 03:39:29;;;;;;;3.73;2.10;;;0.90;99.90;;;;;;4878011;29;20049;-83
2023/11/27 03:41:54;;;;;;;3.37;2.20;;;0.90;99.90;;;;;;4875315;29;20132;-83
2023/11/27 03:44:20;;;;;;;3.70;2.27;;;0.90;99.90;;;;;;4878729;29;20072;-83
2023/11/27 03:46:46;;;;;;;8.13;2.07;;;1.00;99.90;;;;;;4873609;29;20041;-83
2023/11/27 03:49:12;;;;;;;3.80;2.23;;;1.00;99.90;;;;;;4872866;29;20036;-83
2023/11/27 03:51:38;;;;;;;5.87;1.80;;;1.00;99.90;;;;;;4872626;29;20033;-83
2023/11/27 03:54:04;;;;;;;4.70;2.83;;;1.00;99.90;;;;;;4872628;29;20041;-83
2023/11/27 03:56:29;;;;;;;4.47;1.77;;;1.00;99.90;;;;;;4872803;29;20036;-83
2023/11/27 03:58:55;;;;;;;4.53;1.80;;;1.00;99.90;;;;;;4873307;29;20032;-83
2023/11/27 04:01:21;;;;;;;3.67;2.10;;;1.00;99.90;;;;;;4874136;29;20037;-83
2023/11/27 04:03:47;;;;;;;5.33;1.73;;;1.00;99.90;;;;;;4873197;29;20720;-83
2023/11/27 04:06:22;;;;;;;4.33;1.87;;;1.00;99.90;;;;;;4872467;29;20034;-81
2023/11/27 04:08:48;;;;;;;;;;;1.00;99.90;;;;;;4873070;29;20029;-83
2023/11/27 04:11:14;;;;;;;3.40;1.70;;;1.00;99.90;;;;;;4873575;29;19920;-83
2023/11/27 04:13:39;;;;;;;2.20;1.40;;;1.00;99.90;;;;;;4872676;29;20028;-83
2023/11/27 04:16:06;;;;;;;2.80;1.50;;;1.00;99.90;;;;;;4871770;29;20071;-83
2023/11/27 04:18:32;;;;;;;2.83;1.50;;;1.00;99.90;;;;;;4872133;29;20115;-84
2023/11/27 04:20:58;;;;;;;2.63;1.60;;;1.00;99.90;;;;;;4872407;29;20037;-83
2023/11/27 04:23:23;;;;;;;2.30;1.43;;;1.00;99.90;;;;;;4872787;29;20033;-83
2023/11/27 04:25:49;;;;;;;1.70;1.30;;;1.00;99.90;;;;;;4869851;29;20049;-83
2023/11/27 04:28:15;;;;;;;3.97;1.50;;;1.00;99.90;;;;;;4872649;29;20486;-82
2023/11/27 04:30:40;;;;;;;2.27;1.53;;;1.00;99.90;;;;;;4872733;29;20039;-83
2023/11/27 04:33:06;;;;;;;4.13;1.73;;;1.00;99.90;;;;;;4871614;29;20112;-83
2023/11/27 04:35:31;;;;;;;5.07;2.10;;;1.00;99.90;;;;;;4874633;29;20060;-83
2023/11/27 04:37:57;;;;;;;6.33;2.70;;;1.00;99.90;;;;;;4875402;29;20025;-83
2023/11/27 04:40:22;;;;;;;2.10;1.40;;;1.00;99.90;;;;;;4874595;29;20631;-83
2023/11/27 04:42:48;;;;;;;4.03;1.80;;;1.00;99.90;;;;;;4874618;29;20480;-83
2023/11/27 04:45:14;;;;;;;3.60;1.50;;;1.00;99.90;;;;;;4875157;29;20036;-83
2023/11/27 04:47:39;;;;;;;1.63;1.33;;;0.90;99.90;;;;;;4875148;29;20073;-83
2023/11/27 04:50:06;;;;;;;2.03;1.40;;;1.00;99.90;;;;;;4874692;29;20033;-83
2023/11/27 04:52:32;;;;;;;3.47;1.50;;;1.00;99.90;;;;;;4874899;29;20049;-83
2023/11/27 04:54:57;;;;;;;2.30;1.40;;;0.90;99.90;;;;;;4873617;29;20037;-83
2023/11/27 04:57:24;;;;;;;3.23;1.20;;;0.90;99.90;;;;;;4872007;29;20044;-83
2023/11/27 04:59:50;;;;;;;2.70;1.50;;;0.90;99.90;;;;;;4872185;29;20033;-83
2023/11/27 05:02:16;;;;;;;2.73;1.40;;;0.90;99.90;;;;;;4880013;29;20061;-83
2023/11/27 05:04:43;;;;;;;3.03;1.53;;;0.90;99.90;;;;;;4895702;29;20043;-83
2023/11/27 05:07:09;;;;;;;1.80;1.13;;;0.90;99.90;;;;;;4899905;29;20076;-82
2023/11/27 05:09:39;;;;;;;3.03;1.60;;;0.90;99.90;;;;;;4878031;29;20029;-83
2023/11/27 05:12:04;;;;;;;2.17;1.50;;;0.90;99.90;;;;;;4876100;29;20150;-82
2023/11/27 05:14:30;;;;;;;2.10;1.30;;;0.90;99.90;;;;;;4875588;29;20481;-82
2023/11/27 05:16:56;;;;;;;2.80;1.40;;;0.80;99.90;;;;;;4874889;29;20041;-81
2023/11/27 05:19:21;;;;;;;1.80;1.10;;;0.80;99.90;;;;;;4873510;29;20116;-82
2023/11/27 05:21:47;;;;;;;1.53;1.30;;;0.80;99.90;;;;;;4875143;29;21457;-83
2023/11/27 05:24:12;;;;;;;2.20;1.27;;;0.80;99.90;;;;;;4871993;29;20659;-82
2023/11/27 05:26:38;;;;;;;1.40;1.17;;;0.80;99.90;;;;;;4873314;29;20040;-83
2023/11/27 05:29:04;;;;;;;2.40;1.20;;;0.80;99.90;;;;;;4873817;29;20076;-82
2023/11/27 05:31:30;;;;;;;5.87;1.40;;;0.70;99.90;;;;;;4875578;29;20089;-83
2023/11/27 05:33:55;;;;;;;2.60;1.33;;;0.80;99.90;;;;;;4875419;29;20052;-82
2023/11/27 05:36:21;;;;;;;3.00;1.37;;;0.70;99.90;;;;;;4874447;29;20742;-82
2023/11/27 05:38:46;;;;;;;1.77;1.30;;;0.70;99.90;;;;;;4874129;29;20069;-83
2023/11/27 05:41:12;;;;;;;2.07;1.10;;;0.70;99.90;;;;;;4874570;29;20044;-82
2023/11/27 05:43:38;;;;;;;2.57;1.57;;;0.70;99.90;;;;;;4872016;29;20048;-82
2023/11/27 05:46:04;;;;;;;1.90;1.20;;;0.70;99.90;;;;;;4873405;29;20185;-82
2023/11/27 05:48:30;;;;;;;2.27;1.40;;;0.60;99.90;;;;;;4872283;29;20429;-82
2023/11/27 05:50:56;;;;;;;2.00;1.30;;;0.60;99.90;;;;;;4872375;29;20037;-82
2023/11/27 05:53:22;;;;;;;2.90;1.37;;;0.60;99.90;;;;;;4873603;29;20037;-82
2023/11/27 05:55:47;;;;;;;1.20;1.10;;;0.60;99.90;;;;;;4875244;29;20033;-82
2023/11/27 05:58:13;;;;;;;2.97;1.40;;;0.60;99.90;;;;;;4879012;29;20548;-82
2023/11/27 06:00:38;;;;;;;1.70;1.10;;;0.60;99.90;;;;;;4872854;29;20038;-80
2023/11/27 06:03:04;;;;;;;1.80;1.10;;;0.60;99.90;;;;;;4875536;29;20417;-79
2023/11/27 06:05:30;;;;;;;1.63;1.10;;;0.60;99.90;;;;;;4876094;29;20037;-80
2023/11/27 06:07:55;;;;;;;3.07;1.20;;;0.60;99.90;;;;;;4872321;29;20041;-80
2023/11/27 06:10:21;;;;;;;2.03;1.10;;;0.50;99.90;;;;;;4876307;29;20200;-80
2023/11/27 06:12:47;;;;;;;1.67;1.20;;;0.50;99.90;;;;;;4875495;29;20032;-79
2023/11/27 06:15:14;;;;;;;1.13;1.00;;;0.50;99.90;;;;;;4876132;29;20021;-80
2023/11/27 06:17:42;;;;;;;3.03;1.30;;;0.50;99.90;;;;;;4876988;29;20100;-80
2023/11/27 06:20:15;;;;;;;1.50;1.23;;;0.50;99.90;;;;;;4874681;29;20045;-80
2023/11/27 06:22:41;;;;;;;3.43;1.83;;;0.40;99.90;;;;;;4875355;29;20036;-80
2023/11/27 06:25:07;;;;;;;3.47;1.27;;;0.50;99.90;;;;;;4878723;29;20037;-80
2023/11/27 06:27:33;;;;;;;2.50;1.20;;;0.50;99.90;;;;;;4874752;29;20328;-80
2023/11/27 06:29:59;;;;;;;2.13;1.30;;;0.50;99.90;;;;;;4875299;29;20055;-80
2023/11/27 06:32:25;;;;;;;5.23;1.60;;;0.50;99.90;;;;;;4877064;29;20057;-80
2023/11/27 06:34:51;;;;;;;1.70;1.10;;;0.50;99.90;;;;;;4876329;29;20052;-80
2023/11/27 06:37:16;;;;;;;2.87;1.37;;;0.50;99.90;;;;;;4873912;29;20040;-80
2023/11/27 06:39:42;;;;;;;4.23;1.30;;;0.50;99.90;;;;;;4872471;29;20037;-80
2023/11/27 06:42:12;;;;;;;2.57;1.43;;;0.50;99.90;;;;;;4871553;29;21460;-80
2023/11/27 06:44:38;;;;;;;2.73;1.50;;;0.50;99.90;;;;;;4872709;29;20082;-81
2023/11/27 06:47:05;;;;;;;3.20;1.50;;;0.50;99.90;;;;;;4871411;29;20030;-80
2023/11/27 06:49:31;;;;;;;2.70;1.60;;;0.50;99.90;;;;;;4872552;29;20447;-80
2023/11/27 06:51:56;;;;;;;4.33;2.67;;;0.50;99.90;;;;;;4871400;29;20033;-80
2023/11/27 06:54:22;;;;;;;6.97;2.70;;;0.50;99.90;;;;;;4870914;29;20040;-80
2023/11/27 06:56:48;;;;;;;5.33;3.27;;;0.50;99.90;;;;;;4865834;29;20124;-80
2023/11/27 06:59:14;;;;;;;8.50;4.40;;;0.50;99.90;;;;;;4869031;29;20037;-80
2023/11/27 07:01:43;;;;;;;8.67;4.50;;;0.50;99.90;;;;;;4870935;29;20477;-80
2023/11/27 07:04:09;;;;;;;6.00;3.63;;;0.50;99.90;;;;;;4870169;29;20069;-80
2023/11/27 07:06:37;;;;;;;8.80;3.20;;;0.50;99.90;;;;;;4867839;29;20033;-80
2023/11/27 07:09:07;;;;;;;8.57;3.03;;;0.50;99.90;;;;;;4869418;29;21041;-81
2023/11/27 07:11:33;;;;;;;5.13;2.77;;;0.50;99.90;;;;;;4868848;29;20033;-81
2023/11/27 07:14:00;;;;;;;5.63;2.03;;;0.50;99.90;;;;;;4868911;29;20061;-80
2023/11/27 07:16:27;;;;;;;3.63;1.80;;;0.50;99.90;;;;;;4863947;29;20067;-80
2023/11/27 07:18:54;;;;;;;4.10;1.43;;;0.50;99.90;;;;;;4868476;29;20045;-80
2023/11/27 07:21:20;;;;;;;2.47;1.70;;;0.50;99.90;;;;;;4866994;29;20035;-82
2023/11/27 07:23:45;;;;;;;5.67;1.90;;;0.50;99.90;;;;;;4866416;29;20063;-79
2023/11/27 07:26:11;;;;;;;2.63;1.60;;;0.60;99.90;;;;;;4867563;29;20163;-80
2023/11/27 07:28:43;;;;;;;2.83;1.60;;;0.60;99.90;;;;;;4866738;29;20048;-81
2023/11/27 07:31:13;;;;;;;3.60;1.50;;;0.60;99.90;;;;;;4868482;29;20060;-81
2023/11/27 07:33:39;;;;;;;3.77;1.90;;;0.60;99.90;;;;;;4868406;29;20033;-79
2023/11/27 07:36:07;;;;;;;6.93;2.50;;;0.60;99.90;;;;;;4867771;29;20037;-79
2023/11/27 07:38:33;;;;;;;5.90;2.73;;;0.70;99.90;;;;;;4868014;29;20034;-79
2023/11/27 07:40:59;;;;;;;6.20;2.27;;;0.70;99.90;;;;;;4868335;29;20037;-78
2023/11/27 07:43:24;;;;;;;4.03;2.37;;;0.70;99.90;;;;;;4867827;29;20029;-78
2023/11/27 07:45:50;;;;;;;4.47;2.17;;;0.70;99.90;;;;;;4859994;29;20065;-79
2023/11/27 07:48:15;;;;;;;6.00;2.37;;;0.70;99.90;;;;;;4853966;29;20497;-78
2023/11/27 07:50:41;;;;;;;4.90;2.00;;;0.80;99.90;;;;;;4854815;29;20040;-79
2023/11/27 07:53:08;;;;;;;2.97;1.97;;;0.80;99.90;;;;;;4854034;29;20117;-79
2023/11/27 07:55:33;;;;;;;4.27;1.93;;;0.90;99.90;;;;;;4854853;29;20091;-79
2023/11/27 07:58:02;;;;;;;5.40;2.13;;;0.90;99.90;;;;;;4855613;29;20503;-80
2023/11/27 08:00:27;;;;;;;4.67;1.90;;;0.90;99.90;;;;;;4869899;29;20109;-78
2023/11/27 08:02:53;;;;;;;3.73;1.80;;;1.00;99.90;;;;;;4879115;29;20060;-78
2023/11/27 08:05:20;;;;;;;5.13;1.60;;;1.00;99.90;;;;;;4872125;29;20065;-78
2023/11/27 08:07:47;;;;;;;4.43;1.70;;;1.10;99.90;;;;;;4855908;29;20032;-79
2023/11/27 08:10:15;;;;;;;4.77;2.50;;;1.20;99.90;;;;;;4857037;29;20093;-79
2023/11/27 08:12:42;;;;;;;4.00;2.13;;;1.30;99.90;;;;;;4855838;29;20128;-79
2023/11/27 08:15:08;;;;;;;4.40;1.90;;;1.30;99.90;;;;;;4855672;29;20033;-79
2023/11/27 08:17:34;;;;;;;2.90;1.50;;;1.40;99.90;;;;;;4855066;29;20129;-79
2023/11/27 08:20:03;;;;;;;3.73;2.00;;;1.50;99.90;;;;;;4858523;29;20151;-79
2023/11/27 08:22:29;;;;;;;4.63;1.73;;;1.50;99.90;;;;;;4855230;29;20029;-79
2023/11/27 08:24:57;;;;;;;4.80;2.20;;;1.60;99.90;;;;;;4855152;29;20571;-79
2023/11/27 08:27:26;;;;;;;5.13;2.20;;;1.60;99.90;;;;;;4857480;29;20077;-79
2023/11/27 08:29:54;;;;;;;5.90;2.80;;;1.70;99.90;;;;;;4856893;29;20076;-79
2023/11/27 08:32:20;;;;;;;8.37;3.30;;;1.70;99.90;;;;;;4857395;29;20033;-79
2023/11/27 08:34:45;;;;;;;8.53;3.70;;;1.80;99.90;;;;;;4856675;29;20048;-79
2023/11/27 08:37:16;;;;;;;14.13;3.70;;;1.80;99.90;;;;;;4854545;29;20029;-79
2023/11/27 08:39:42;;;;;;;8.60;3.33;;;1.90;99.90;;;;;;4855516;29;20096;-79
2023/11/27 08:42:08;;;;;;;8.43;3.43;;;1.90;99.90;;;;;;4858444;29;20184;-80
2023/11/27 08:44:33;;;;;;;8.90;3.37;;;1.90;99.90;;;;;;4858564;29;20559;-80
2023/11/27 08:46:59;;;;;;;7.17;3.00;;;2.00;99.90;;;;;;4855055;29;20029;-79
2023/11/27 08:49:24;;;;;;;8.83;3.63;;;2.00;99.90;;;;;;4855957;29;20045;-79
2023/11/27 08:51:50;;;;;;;6.03;2.87;;;2.10;99.90;;;;;;4857669;29;20048;-81
2023/11/27 08:54:16;;;;;;;7.90;2.80;;;2.20;99.90;;;;;;4858274;29;20041;-79
2023/11/27 08:56:43;;;;;;;5.60;2.87;;;2.20;99.90;;;;;;4855332;29;20033;-79
2023/11/27 08:59:09;;;;;;;6.63;2.53;;;2.30;99.90;;;;;;4856077;29;20108;-79
2023/11/27 09:01:35;;;;;;;5.40;2.43;;;2.40;99.90;;;;;;4857492;29;21736;-80
2023/11/27 09:04:02;;;;;;;6.77;2.93;;;2.50;99.90;;;;;;4856624;29;20034;-80
2023/11/27 09:06:28;;;;;;;6.27;2.80;;;2.60;99.90;;;;;;4858054;29;20090;-80
2023/11/27 09:08:54;;;;;;;6.90;3.40;;;2.70;99.90;;;;;;4863014;29;20114;-79
2023/11/27 09:11:20;;;;;;;4.97;2.57;;;2.80;99.90;;;;;;4860864;29;20063;-79
2023/11/27 09:13:46;;;;;;;6.70;2.43;;;2.80;99.90;;;;;;4856897;29;20168;-79
2023/11/27 09:16:11;;;;;;;5.90;2.57;;;2.90;99.90;;;;;;4857073;29;20049;-79
2023/11/27 09:18:38;;;;;;;6.53;2.67;;;2.90;99.90;;;;;;4856942;29;20035;-80
2023/11/27 09:21:04;;;;;;;5.50;2.30;;;3.00;99.90;;;;;;4862225;29;21095;-79
2023/11/27 09:23:29;;;;;;;7.40;2.40;;;3.10;99.90;;;;;;4869096;29;20037;-80
2023/11/27 09:25:55;;;;;;;7.67;2.97;;;3.10;99.90;;;;;;4872949;29;20397;-79
2023/11/27 09:28:20;;;;;;;8.53;2.57;;;3.20;99.90;;;;;;4873884;29;20029;-79
2023/11/27 09:30:47;;;;;;;4.77;1.90;;;3.20;99.90;;;;;;4874136;29;20029;-79
2023/11/27 09:33:13;;;;;;;6.00;1.80;;;3.30;99.90;;;;;;4873021;29;20120;-80
2023/11/27 09:35:39;;;;;;;4.63;2.27;;;3.30;99.90;;;;;;4871618;29;20029;-79
2023/11/27 09:38:07;;;;;;;2.93;1.80;;;3.30;99.90;;;;;;4872121;29;20021;-79
2023/11/27 09:40:41;;;;;;;7.10;1.83;;;3.40;99.90;;;;;;4871539;29;20044;-80
2023/11/27 09:43:08;;;;;;;3.63;1.40;;;3.40;99.90;;;;;;4873499;29;20124;-79
2023/11/27 09:45:33;;;;;;;4.20;2.03;;;3.50;99.90;;;;;;4873624;29;20036;-79
2023/11/27 09:48:01;;;;;;;4.00;1.70;;;3.50;99.90;;;;;;4872249;29;20037;-80
2023/11/27 09:50:28;;;;;;;3.87;1.50;;;3.60;99.90;;;;;;4873259;29;20029;-80
2023/11/27 09:53:10;;;;;;;5.03;1.47;;;3.60;99.90;;;;;;4871172;29;20037;-78
2023/11/27 09:55:40;;;;;;;3.50;1.53;;;3.70;99.90;;;;;;4880125;29;20811;-81
2023/11/27 09:58:13;;;;;;;5.47;2.00;;;3.80;99.90;;;;;;4877645;29;20041;-80
2023/11/27 10:00:41;;;;;;;1.83;1.20;;;3.90;99.90;;;;;;4869288;29;20116;-82
2023/11/27 10:03:07;;;;;;;5.67;1.70;;;4.00;99.90;;;;;;4862594;29;20049;-82
2023/11/27 10:05:32;;;;;;;3.90;1.37;;;4.10;99.90;;;;;;4863094;29;20048;-82
2023/11/27 10:07:58;;;;;;;3.47;1.30;;;4.10;99.90;;;;;;4862783;29;20029;-81
2023/11/27 10:10:27;;;;;;;3.70;1.40;;;4.20;99.90;;;;;;4863648;29;20033;-82
2023/11/27 10:13:06;;;;;;;1.70;1.30;;;4.20;99.90;;;;;;4866895;29;20040;-82
2023/11/27 10:15:34;;;;;;;3.03;1.33;;;4.20;99.90;;;;;;4862183;29;20047;-81
2023/11/27 10:18:00;;;;;;;2.80;1.40;;;4.30;99.90;;;;;;4860996;29;20100;-82
2023/11/27 10:20:28;;;;;;;5.13;1.60;;;4.30;99.90;;;;;;4862148;29;20077;-82
2023/11/27 10:22:56;;;;;;;4.90;1.80;;;4.40;99.90;;;;;;4862815;29;20040;-82
2023/11/27 10:25:23;;;;;;;3.13;1.40;;;4.40;99.90;;;;;;4861313;29;20044;-82
2023/11/27 10:27:58;;;;;;;2.87;1.70;;;4.40;99.90;;;;;;4864539;29;20427;-81
2023/11/27 10:30:25;;;;;;;3.50;1.70;;;4.30;99.90;;;;;;4860739;29;20047;-80
2023/11/27 10:32:52;;;;;;;4.17;2.00;;;4.30;99.90;;;;;;4870955;29;20081;-81
2023/11/27 10:35:20;;;;;;;4.53;1.60;;;4.30;99.90;;;;;;4871771;29;20017;-81
2023/11/27 10:37:49;;;;;;;8.73;1.80;;;4.30;99.90;;;;;;4872345;29;20021;-81
2023/11/27 10:40:16;;;;;;;4.43;1.90;;;4.40;99.90;;;;;;4871812;29;20052;-81
2023/11/27 10:42:47;;;;;;;3.13;1.90;;;4.40;99.90;;;;;;4870179;29;20057;-81
2023/11/27 10:45:15;;;;;;;4.23;2.00;;;4.50;99.90;;;;;;4871858;29;20044;-83
2023/11/27 10:47:44;;;;;;;5.73;2.20;;;4.60;99.90;;;;;;4874105;29;20075;-83
2023/11/27 10:50:12;;;;;;;6.83;2.33;;;4.60;99.90;;;;;;4873834;29;20120;-83
2023/11/27 10:52:43;;;;;;;8.63;2.13;;;4.70;99.90;;;;;;4875906;29;20037;-83
2023/11/27 10:55:13;;;;;;;3.83;2.10;;;4.80;99.90;;;;;;4879385;29;20037;-83
2023/11/27 10:57:41;;;;;;;3.93;1.83;;;4.80;99.90;;;;;;4881012;29;20036;-80
2023/11/27 11:00:07;;;;;;;3.87;1.70;;;4.80;99.90;;;;;;4880744;29;20030;-84
2023/11/27 11:02:35;;;;;;;5.43;1.80;;;4.80;99.90;;;;;;4872610;29;20044;-83
2023/11/27 11:05:03;;;;;;;3.67;1.43;;;4.80;99.90;;;;;;4871230;29;20132;-84
2023/11/27 11:07:39;;;;;;;2.60;1.60;;;4.80;99.90;;;;;;4867842;29;20043;-84
2023/11/27 11:10:10;;;;;;;3.07;1.87;;;4.70;99.90;;;;;;4869531;29;20092;-81
2023/11/27 11:12:40;;;;;;;10.90;1.97;;;4.80;99.90;;;;;;4868678;29;20033;-81
2023/11/27 11:15:07;;;;;;;5.70;1.97;;;4.80;99.90;;;;;;4868550;29;20036;-81
2023/11/27 11:17:50;;;;;;;5.73;1.73;;;4.90;99.90;;;;;;4867546;29;20120;-81
2023/11/27 11:20:30;;;;;;;3.60;1.90;;;5.00;99.90;;;;;;4868390;29;20065;-81
2023/11/27 11:23:20;;;;;;;7.97;2.40;;;5.10;99.90;;;;;;4867253;29;20044;-81
2023/11/27 11:26:08;;;;;;;3.43;1.80;;;5.10;99.90;;;;;;4866700;29;20037;-80
2023/11/27 11:28:42;;;;;;;4.53;1.73;;;5.10;99.90;;;;;;4865973;29;20107;-81
2023/11/27 11:31:23;;;;;;;6.70;2.73;;;5.10;99.90;;;;;;4864516;29;20036;-80
2023/11/27 11:33:49;;;;;;;7.17;1.97;;;5.20;99.90;;;;;;4870297;29;20025;-81
2023/11/27 11:36:32;;;;;;;6.03;1.37;;;5.10;99.90;;;;;;4869543;29;20083;-79
2023/11/27 11:38:58;;;;;;;5.00;1.27;;;5.10;99.90;;;;;;4869863;29;20029;-78
2023/11/27 11:41:28;;;;;;;5.60;1.03;;;5.10;99.90;;;;;;4868809;29;20205;-79
2023/11/27 11:43:58;;;;;;;3.07;1.00;;;5.20;99.90;;;;;;4867406;29;20041;-80
2023/11/27 11:46:26;;;;;;;5.27;1.07;;;5.20;99.90;;;;;;4868237;29;20040;-80
2023/11/27 11:49:01;;;;;;;2.50;1.00;;;5.20;99.90;;;;;;4867319;29;20068;-80
2023/11/27 11:51:31;;;;;;;3.10;1.57;;;5.30;99.90;;;;;;4865963;29;20041;-80
2023/11/27 11:53:57;;;;;;;1.60;1.00;;;5.30;99.90;;;;;;4866734;29;20041;-81
2023/11/27 11:56:24;;;;;;;4.33;1.50;;;5.30;99.90;;;;;;4867550;29;20029;-81
2023/11/27 11:58:50;;;;;;;2.23;1.20;;;5.30;99.90;;;;;;4869250;29;20029;-81
2023/11/27 12:01:18;;;;;;;3.20;1.40;;;5.30;99.90;;;;;;4869141;29;20036;-81
2023/11/27 12:03:46;;;;;;;3.93;1.20;;;5.40;99.90;;;;;;4868873;29;20037;-81
2023/11/27 12:06:14;;;;;;;3.43;1.10;;;5.40;99.90;;;;;;4869739;29;20055;-81
2023/11/27 12:08:45;;;;;;;3.60;1.00;;;5.40;99.90;;;;;;4869469;29;20030;-82
2023/11/27 12:11:14;;;;;;;2.00;1.17;;;5.50;99.90;;;;;;4870142;29;20081;-81
2023/11/27 12:13:43;;;;;;;2.47;1.30;;;5.50;99.90;;;;;;4870131;29;20036;-80
2023/11/27 12:16:16;;;;;;;2.83;1.43;;;5.40;99.90;;;;;;4871088;29;20045;-81
2023/11/27 12:18:44;;;;;;;2.60;1.30;;;5.40;99.90;;;;;;4868858;29;20033;-81
2023/11/27 12:21:11;;;;;;;4.10;1.27;;;5.40;99.90;;;;;;4862995;29;20053;-82
2023/11/27 12:23:38;;;;;;;2.27;1.17;;;5.40;99.90;;;;;;4855788;29;20496;-80
2023/11/27 12:26:09;;;;;;;2.83;1.10;;;5.40;99.90;;;;;;4856274;29;20215;-81
2023/11/27 12:28:36;;;;;;;4.50;1.30;;;5.40;99.90;;;;;;4856782;29;20104;-83
2023/11/27 12:31:03;;;;;;;4.13;1.93;;;5.40;99.90;;;;;;4858576;29;20048;-81
2023/11/27 12:33:29;;;;;;;3.43;1.37;;;5.30;99.90;;;;;;4852605;29;20089;-78
2023/11/27 12:35:54;;;;;;;1.70;1.20;;;5.30;99.90;;;;;;4849921;29;20033;-78
2023/11/27 12:38:20;;;;;;;3.53;1.30;;;5.30;99.90;;;;;;4852733;29;20777;-78
2023/11/27 12:40:47;;;;;;;2.87;1.30;;;5.30;99.90;;;;;;4855518;29;20769;-79
2023/11/27 12:43:18;;;;;;;6.60;2.73;;;5.30;99.90;;;;;;4862958;29;20056;-78
2023/11/27 12:45:44;;;;;;;7.37;1.87;;;5.20;99.90;;;;;;4863543;29;20041;-78
2023/11/27 12:48:09;;;;;;;3.67;1.40;;;5.20;99.90;;;;;;4862681;29;20064;-77
2023/11/27 12:50:40;;;;;;;3.30;1.23;;;5.30;99.90;;;;;;4861651;29;20048;-77
2023/11/27 12:53:07;;;;;;;3.07;1.40;;;5.30;99.90;;;;;;4863499;29;20064;-78
2023/11/27 12:55:36;;;;;;;3.27;1.40;;;5.30;99.90;;;;;;4866351;29;20040;-78